sensor_id;sensor_type;location;lat;lon;timestamp;P1;durP1;ratioP1;P2;durP2;ratioP2
26540;SDS011;14206;50.202;10.948;2022-10-16T00:01:49;1.48;;;1.10;;
26540;SDS011;14206;50.202;10.948;2022-10-16T00:04:16;1.17;;;1.00;;
26540;SDS011;14206;50.202;10.948;2022-10-16T00:09:58;2.17;;;1.02;;
26540;SDS011;14206;50.202;10.948;2022-10-16T00:12:30;2.80;;;1.17;;
26540;SDS011;14206;50.202;10.948;2022-10-16T00:14:57;1.40;;;1.30;;
26540;SDS011;14206;50.202;10.948;2022-10-16T00:17:24;1.20;;;1.10;;
26540;SDS011;14206;50.202;10.948;2022-10-16T00:19:51;1.63;;;1.15;;
26540;SDS011;14206;50.202;10.948;2022-10-16T00:22:18;2.50;;;1.50;;
26540;SDS011;14206;50.202;10.948;2022-10-16T00:24:45;1.45;;;1.20;;
26540;SDS011;14206;50.202;10.948;2022-10-16T00:27:16;2.20;;;1.42;;
26540;SDS011;14206;50.202;10.948;2022-10-16T00:29:43;3.00;;;1.10;;
26540;SDS011;14206;50.202;10.948;2022-10-16T00:32:10;1.80;;;1.13;;
26540;SDS011;14206;50.202;10.948;2022-10-16T00:34:36;2.83;;;1.30;;
26540;SDS011;14206;50.202;10.948;2022-10-16T00:37:05;1.70;;;0.88;;
26540;SDS011;14206;50.202;10.948;2022-10-16T00:39:32;2.00;;;1.10;;
26540;SDS011;14206;50.202;10.948;2022-10-16T00:42:05;1.05;;;0.90;;
26540;SDS011;14206;50.202;10.948;2022-10-16T00:49:58;0.93;;;0.88;;
26540;SDS011;14206;50.202;10.948;2022-10-16T00:52:31;0.70;;;0.70;;
26540;SDS011;14206;50.202;10.948;2022-10-16T00:54:58;0.95;;;0.77;;
26540;SDS011;14206;50.202;10.948;2022-10-16T00:57:32;1.25;;;0.90;;
26540;SDS011;14206;50.202;10.948;2022-10-16T00:59:59;0.80;;;0.80;;
26540;SDS011;14206;50.202;10.948;2022-10-16T01:02:26;0.70;;;0.70;;
26540;SDS011;14206;50.202;10.948;2022-10-16T01:04:53;0.77;;;0.77;;
26540;SDS011;14206;50.202;10.948;2022-10-16T01:10:10;1.55;;;0.77;;
26540;SDS011;14206;50.202;10.948;2022-10-16T01:12:51;0.68;;;0.68;;
26540;SDS011;14206;50.202;10.948;2022-10-16T01:15:37;0.80;;;0.70;;
26540;SDS011;14206;50.202;10.948;2022-10-16T01:20:48;0.85;;;0.60;;
26540;SDS011;14206;50.202;10.948;2022-10-16T01:23:50;1.45;;;0.60;;
26540;SDS011;14206;50.202;10.948;2022-10-16T01:26:33;1.80;;;0.70;;
26540;SDS011;14206;50.202;10.948;2022-10-16T01:29:24;0.90;;;0.90;;
26540;SDS011;14206;50.202;10.948;2022-10-16T01:34:52;0.90;;;0.90;;
26540;SDS011;14206;50.202;10.948;2022-10-16T01:40:27;1.70;;;1.25;;
26540;SDS011;14206;50.202;10.948;2022-10-16T01:42:57;2.33;;;1.15;;
26540;SDS011;14206;50.202;10.948;2022-10-16T01:45:27;1.20;;;1.10;;
26540;SDS011;14206;50.202;10.948;2022-10-16T01:47:58;1.15;;;1.05;;
26540;SDS011;14206;50.202;10.948;2022-10-16T01:50:31;1.10;;;1.00;;
26540;SDS011;14206;50.202;10.948;2022-10-16T01:53:02;1.50;;;0.98;;
26540;SDS011;14206;50.202;10.948;2022-10-16T01:55:31;2.75;;;1.00;;
26540;SDS011;14206;50.202;10.948;2022-10-16T01:58:02;1.52;;;1.10;;
26540;SDS011;14206;50.202;10.948;2022-10-16T02:00:31;1.05;;;1.00;;
26540;SDS011;14206;50.202;10.948;2022-10-16T02:02:59;1.20;;;1.10;;
26540;SDS011;14206;50.202;10.948;2022-10-16T02:05:30;1.40;;;1.10;;
26540;SDS011;14206;50.202;10.948;2022-10-16T02:08:11;1.35;;;1.15;;
26540;SDS011;14206;50.202;10.948;2022-10-16T02:10:38;1.58;;;1.40;;
26540;SDS011;14206;50.202;10.948;2022-10-16T02:13:06;1.60;;;1.27;;
26540;SDS011;14206;50.202;10.948;2022-10-16T02:15:36;1.83;;;1.20;;
26540;SDS011;14206;50.202;10.948;2022-10-16T02:18:03;3.67;;;1.17;;
26540;SDS011;14206;50.202;10.948;2022-10-16T02:20:37;2.05;;;1.08;;
26540;SDS011;14206;50.202;10.948;2022-10-16T02:23:13;1.23;;;1.10;;
26540;SDS011;14206;50.202;10.948;2022-10-16T02:25:45;1.65;;;1.10;;
26540;SDS011;14206;50.202;10.948;2022-10-16T02:28:16;1.20;;;0.95;;
26540;SDS011;14206;50.202;10.948;2022-10-16T02:30:52;1.33;;;0.93;;
26540;SDS011;14206;50.202;10.948;2022-10-16T02:33:26;1.90;;;0.85;;
26540;SDS011;14206;50.202;10.948;2022-10-16T02:35:55;0.85;;;0.85;;
26540;SDS011;14206;50.202;10.948;2022-10-16T02:38:23;0.98;;;0.90;;
26540;SDS011;14206;50.202;10.948;2022-10-16T02:40:51;0.80;;;0.80;;
26540;SDS011;14206;50.202;10.948;2022-10-16T02:43:19;0.75;;;0.75;;
26540;SDS011;14206;50.202;10.948;2022-10-16T02:45:46;0.98;;;0.80;;
26540;SDS011;14206;50.202;10.948;2022-10-16T02:48:13;0.90;;;0.90;;
26540;SDS011;14206;50.202;10.948;2022-10-16T02:50:41;1.27;;;0.80;;
26540;SDS011;14206;50.202;10.948;2022-10-16T02:53:08;1.00;;;0.90;;
26540;SDS011;14206;50.202;10.948;2022-10-16T02:55:35;1.70;;;0.60;;
26540;SDS011;14206;50.202;10.948;2022-10-16T02:58:01;0.73;;;0.50;;
26540;SDS011;14206;50.202;10.948;2022-10-16T03:00:28;0.85;;;0.82;;
26540;SDS011;14206;50.202;10.948;2022-10-16T03:02:55;1.83;;;0.70;;
26540;SDS011;14206;50.202;10.948;2022-10-16T03:05:22;1.33;;;0.70;;
26540;SDS011;14206;50.202;10.948;2022-10-16T03:07:49;0.70;;;0.70;;
26540;SDS011;14206;50.202;10.948;2022-10-16T03:10:17;0.73;;;0.63;;
26540;SDS011;14206;50.202;10.948;2022-10-16T03:12:44;0.60;;;0.60;;
26540;SDS011;14206;50.202;10.948;2022-10-16T03:15:11;1.45;;;0.47;;
26540;SDS011;14206;50.202;10.948;2022-10-16T03:17:39;0.60;;;0.60;;
26540;SDS011;14206;50.202;10.948;2022-10-16T03:20:06;1.08;;;0.55;;
26540;SDS011;14206;50.202;10.948;2022-10-16T03:22:33;0.52;;;0.50;;
26540;SDS011;14206;50.202;10.948;2022-10-16T03:25:00;0.60;;;0.60;;
26540;SDS011;14206;50.202;10.948;2022-10-16T03:27:27;0.73;;;0.70;;
26540;SDS011;14206;50.202;10.948;2022-10-16T03:29:55;1.88;;;0.90;;
26540;SDS011;14206;50.202;10.948;2022-10-16T03:32:21;0.80;;;0.70;;
26540;SDS011;14206;50.202;10.948;2022-10-16T03:34:51;2.15;;;0.93;;
26540;SDS011;14206;50.202;10.948;2022-10-16T03:37:20;0.70;;;0.70;;
26540;SDS011;14206;50.202;10.948;2022-10-16T03:39:47;3.47;;;0.80;;
26540;SDS011;14206;50.202;10.948;2022-10-16T03:42:14;1.02;;;0.80;;
26540;SDS011;14206;50.202;10.948;2022-10-16T03:44:41;0.95;;;0.90;;
26540;SDS011;14206;50.202;10.948;2022-10-16T03:47:08;1.20;;;0.90;;
26540;SDS011;14206;50.202;10.948;2022-10-16T03:49:35;2.15;;;0.90;;
26540;SDS011;14206;50.202;10.948;2022-10-16T03:52:02;0.75;;;0.75;;
26540;SDS011;14206;50.202;10.948;2022-10-16T03:54:29;1.58;;;0.93;;
26540;SDS011;14206;50.202;10.948;2022-10-16T03:56:56;1.17;;;1.08;;
26540;SDS011;14206;50.202;10.948;2022-10-16T03:59:22;1.23;;;0.95;;
26540;SDS011;14206;50.202;10.948;2022-10-16T04:01:49;1.92;;;1.10;;
26540;SDS011;14206;50.202;10.948;2022-10-16T04:04:17;0.98;;;0.93;;
26540;SDS011;14206;50.202;10.948;2022-10-16T04:06:44;2.72;;;0.90;;
26540;SDS011;14206;50.202;10.948;2022-10-16T04:09:11;0.98;;;0.88;;
26540;SDS011;14206;50.202;10.948;2022-10-16T04:11:38;0.80;;;0.80;;
26540;SDS011;14206;50.202;10.948;2022-10-16T04:14:05;0.88;;;0.85;;
26540;SDS011;14206;50.202;10.948;2022-10-16T04:16:32;0.80;;;0.80;;
26540;SDS011;14206;50.202;10.948;2022-10-16T04:18:59;0.63;;;0.63;;
26540;SDS011;14206;50.202;10.948;2022-10-16T04:21:25;0.80;;;0.80;;
26540;SDS011;14206;50.202;10.948;2022-10-16T04:23:52;0.90;;;0.90;;
26540;SDS011;14206;50.202;10.948;2022-10-16T04:26:19;0.80;;;0.80;;
26540;SDS011;14206;50.202;10.948;2022-10-16T04:28:46;1.38;;;0.82;;
26540;SDS011;14206;50.202;10.948;2022-10-16T04:31:26;1.35;;;1.17;;
26540;SDS011;14206;50.202;10.948;2022-10-16T04:33:53;1.55;;;1.25;;
26540;SDS011;14206;50.202;10.948;2022-10-16T04:36:20;1.00;;;0.90;;
26540;SDS011;14206;50.202;10.948;2022-10-16T04:38:52;0.93;;;0.90;;
26540;SDS011;14206;50.202;10.948;2022-10-16T04:41:18;1.00;;;0.98;;
26540;SDS011;14206;50.202;10.948;2022-10-16T04:43:45;1.38;;;1.00;;
26540;SDS011;14206;50.202;10.948;2022-10-16T04:46:12;1.30;;;0.93;;
26540;SDS011;14206;50.202;10.948;2022-10-16T04:48:39;0.88;;;0.88;;
26540;SDS011;14206;50.202;10.948;2022-10-16T04:51:05;0.80;;;0.80;;
26540;SDS011;14206;50.202;10.948;2022-10-16T04:53:32;2.28;;;0.80;;
26540;SDS011;14206;50.202;10.948;2022-10-16T04:56:03;1.15;;;0.93;;
26540;SDS011;14206;50.202;10.948;2022-10-16T04:58:30;1.98;;;1.00;;
26540;SDS011;14206;50.202;10.948;2022-10-16T05:00:57;1.40;;;1.05;;
26540;SDS011;14206;50.202;10.948;2022-10-16T05:03:24;1.73;;;1.00;;
26540;SDS011;14206;50.202;10.948;2022-10-16T05:05:51;0.93;;;0.90;;
26540;SDS011;14206;50.202;10.948;2022-10-16T05:08:18;0.98;;;0.95;;
26540;SDS011;14206;50.202;10.948;2022-10-16T05:10:52;1.10;;;1.00;;
26540;SDS011;14206;50.202;10.948;2022-10-16T05:13:19;1.10;;;0.90;;
26540;SDS011;14206;50.202;10.948;2022-10-16T05:15:47;1.77;;;1.15;;
26540;SDS011;14206;50.202;10.948;2022-10-16T05:18:14;2.63;;;1.13;;
26540;SDS011;14206;50.202;10.948;2022-10-16T05:20:42;1.50;;;1.23;;
26540;SDS011;14206;50.202;10.948;2022-10-16T05:23:09;1.02;;;0.95;;
26540;SDS011;14206;50.202;10.948;2022-10-16T05:25:43;3.10;;;1.20;;
26540;SDS011;14206;50.202;10.948;2022-10-16T05:28:25;1.10;;;1.00;;
26540;SDS011;14206;50.202;10.948;2022-10-16T05:30:53;1.70;;;1.20;;
26540;SDS011;14206;50.202;10.948;2022-10-16T05:33:20;1.92;;;1.00;;
26540;SDS011;14206;50.202;10.948;2022-10-16T05:35:48;4.22;;;1.10;;
26540;SDS011;14206;50.202;10.948;2022-10-16T05:38:16;2.58;;;1.08;;
26540;SDS011;14206;50.202;10.948;2022-10-16T05:40:49;4.82;;;1.58;;
26540;SDS011;14206;50.202;10.948;2022-10-16T05:43:17;1.40;;;1.30;;
26540;SDS011;14206;50.202;10.948;2022-10-16T05:45:58;1.40;;;0.90;;
26540;SDS011;14206;50.202;10.948;2022-10-16T05:48:30;1.20;;;1.08;;
26540;SDS011;14206;50.202;10.948;2022-10-16T05:51:07;1.23;;;1.10;;
26540;SDS011;14206;50.202;10.948;2022-10-16T05:53:36;2.00;;;1.00;;
26540;SDS011;14206;50.202;10.948;2022-10-16T05:56:05;3.17;;;1.30;;
26540;SDS011;14206;50.202;10.948;2022-10-16T05:58:37;1.40;;;1.30;;
26540;SDS011;14206;50.202;10.948;2022-10-16T06:01:07;1.42;;;1.33;;
26540;SDS011;14206;50.202;10.948;2022-10-16T06:03:37;2.08;;;1.33;;
26540;SDS011;14206;50.202;10.948;2022-10-16T06:06:08;1.40;;;1.30;;
26540;SDS011;14206;50.202;10.948;2022-10-16T06:08:46;1.70;;;1.30;;
26540;SDS011;14206;50.202;10.948;2022-10-16T06:11:17;1.65;;;1.40;;
26540;SDS011;14206;50.202;10.948;2022-10-16T06:13:53;2.28;;;1.40;;
26540;SDS011;14206;50.202;10.948;2022-10-16T06:16:22;1.85;;;1.20;;
26540;SDS011;14206;50.202;10.948;2022-10-16T06:18:51;1.83;;;1.20;;
26540;SDS011;14206;50.202;10.948;2022-10-16T06:21:22;2.30;;;1.40;;
26540;SDS011;14206;50.202;10.948;2022-10-16T06:23:51;1.50;;;1.40;;
26540;SDS011;14206;50.202;10.948;2022-10-16T06:26:19;3.33;;;1.27;;
26540;SDS011;14206;50.202;10.948;2022-10-16T06:28:48;2.70;;;1.38;;
26540;SDS011;14206;50.202;10.948;2022-10-16T06:31:16;1.73;;;1.30;;
26540;SDS011;14206;50.202;10.948;2022-10-16T06:33:44;2.20;;;1.35;;
26540;SDS011;14206;50.202;10.948;2022-10-16T06:36:25;1.90;;;1.10;;
26540;SDS011;14206;50.202;10.948;2022-10-16T06:38:52;2.28;;;1.38;;
26540;SDS011;14206;50.202;10.948;2022-10-16T06:41:20;1.30;;;1.20;;
26540;SDS011;14206;50.202;10.948;2022-10-16T06:43:48;1.55;;;1.45;;
26540;SDS011;14206;50.202;10.948;2022-10-16T06:46:22;1.20;;;1.10;;
26540;SDS011;14206;50.202;10.948;2022-10-16T06:48:50;1.80;;;1.40;;
26540;SDS011;14206;50.202;10.948;2022-10-16T06:51:18;1.67;;;1.00;;
26540;SDS011;14206;50.202;10.948;2022-10-16T06:53:50;1.70;;;1.23;;
26540;SDS011;14206;50.202;10.948;2022-10-16T06:56:40;4.10;;;1.42;;
26540;SDS011;14206;50.202;10.948;2022-10-16T06:59:13;1.30;;;1.20;;
26540;SDS011;14206;50.202;10.948;2022-10-16T07:01:40;1.90;;;1.35;;
26540;SDS011;14206;50.202;10.948;2022-10-16T07:04:07;2.53;;;1.27;;
26540;SDS011;14206;50.202;10.948;2022-10-16T07:06:34;1.60;;;1.42;;
26540;SDS011;14206;50.202;10.948;2022-10-16T07:09:02;2.60;;;1.38;;
26540;SDS011;14206;50.202;10.948;2022-10-16T07:11:31;3.42;;;1.55;;
26540;SDS011;14206;50.202;10.948;2022-10-16T07:13:58;2.47;;;1.10;;
26540;SDS011;14206;50.202;10.948;2022-10-16T07:16:26;3.85;;;1.67;;
26540;SDS011;14206;50.202;10.948;2022-10-16T07:18:55;1.48;;;1.30;;
26540;SDS011;14206;50.202;10.948;2022-10-16T07:21:30;2.28;;;1.30;;
26540;SDS011;14206;50.202;10.948;2022-10-16T07:24:10;1.98;;;1.50;;
26540;SDS011;14206;50.202;10.948;2022-10-16T07:26:40;3.15;;;1.67;;
26540;SDS011;14206;50.202;10.948;2022-10-16T07:29:12;3.00;;;1.40;;
26540;SDS011;14206;50.202;10.948;2022-10-16T07:31:40;1.92;;;1.50;;
26540;SDS011;14206;50.202;10.948;2022-10-16T07:34:08;1.55;;;1.20;;
26540;SDS011;14206;50.202;10.948;2022-10-16T07:36:36;2.10;;;1.30;;
26540;SDS011;14206;50.202;10.948;2022-10-16T07:39:08;1.98;;;1.30;;
26540;SDS011;14206;50.202;10.948;2022-10-16T07:41:34;2.22;;;1.25;;
26540;SDS011;14206;50.202;10.948;2022-10-16T07:44:03;3.65;;;1.50;;
26540;SDS011;14206;50.202;10.948;2022-10-16T07:46:30;2.33;;;1.27;;
26540;SDS011;14206;50.202;10.948;2022-10-16T07:48:59;1.60;;;1.50;;
26540;SDS011;14206;50.202;10.948;2022-10-16T07:51:26;1.50;;;1.30;;
26540;SDS011;14206;50.202;10.948;2022-10-16T07:53:53;2.10;;;1.20;;
26540;SDS011;14206;50.202;10.948;2022-10-16T07:56:21;2.15;;;1.17;;
26540;SDS011;14206;50.202;10.948;2022-10-16T07:58:49;1.45;;;1.20;;
26540;SDS011;14206;50.202;10.948;2022-10-16T08:01:16;1.23;;;1.08;;
26540;SDS011;14206;50.202;10.948;2022-10-16T08:03:45;1.20;;;1.10;;
26540;SDS011;14206;50.202;10.948;2022-10-16T08:06:17;4.78;;;1.30;;
26540;SDS011;14206;50.202;10.948;2022-10-16T08:08:50;1.10;;;1.00;;
26540;SDS011;14206;50.202;10.948;2022-10-16T08:11:17;2.67;;;1.20;;
26540;SDS011;14206;50.202;10.948;2022-10-16T08:13:44;1.25;;;1.08;;
26540;SDS011;14206;50.202;10.948;2022-10-16T08:16:11;3.92;;;1.60;;
26540;SDS011;14206;50.202;10.948;2022-10-16T08:18:38;2.83;;;1.40;;
26540;SDS011;14206;50.202;10.948;2022-10-16T08:21:07;5.32;;;1.20;;
26540;SDS011;14206;50.202;10.948;2022-10-16T08:23:46;3.72;;;1.33;;
26540;SDS011;14206;50.202;10.948;2022-10-16T08:26:22;3.88;;;1.33;;
26540;SDS011;14206;50.202;10.948;2022-10-16T08:28:49;2.47;;;1.05;;
26540;SDS011;14206;50.202;10.948;2022-10-16T08:31:17;2.10;;;1.30;;
26540;SDS011;14206;50.202;10.948;2022-10-16T08:33:45;3.08;;;1.40;;
26540;SDS011;14206;50.202;10.948;2022-10-16T08:36:13;4.05;;;1.40;;
26540;SDS011;14206;50.202;10.948;2022-10-16T08:38:41;2.20;;;1.45;;
26540;SDS011;14206;50.202;10.948;2022-10-16T08:49:05;1.60;;;1.10;;
26540;SDS011;14206;50.202;10.948;2022-10-16T08:51:37;2.70;;;1.27;;
26540;SDS011;14206;50.202;10.948;2022-10-16T08:54:21;2.00;;;1.17;;
26540;SDS011;14206;50.202;10.948;2022-10-16T08:57:22;1.23;;;1.13;;
26540;SDS011;14206;50.202;10.948;2022-10-16T08:59:51;1.85;;;1.40;;
26540;SDS011;14206;50.202;10.948;2022-10-16T09:02:24;1.20;;;1.08;;
26540;SDS011;14206;50.202;10.948;2022-10-16T09:10:38;1.50;;;1.10;;
26540;SDS011;14206;50.202;10.948;2022-10-16T09:13:40;2.72;;;1.63;;
26540;SDS011;14206;50.202;10.948;2022-10-16T09:16:52;3.17;;;1.63;;
26540;SDS011;14206;50.202;10.948;2022-10-16T09:21:55;1.88;;;1.42;;
26540;SDS011;14206;50.202;10.948;2022-10-16T09:24:25;1.52;;;1.15;;
26540;SDS011;14206;50.202;10.948;2022-10-16T09:26:54;2.00;;;1.40;;
26540;SDS011;14206;50.202;10.948;2022-10-16T09:29:21;1.65;;;1.50;;
26540;SDS011;14206;50.202;10.948;2022-10-16T09:31:52;3.85;;;1.70;;
26540;SDS011;14206;50.202;10.948;2022-10-16T09:34:29;3.53;;;1.40;;
26540;SDS011;14206;50.202;10.948;2022-10-16T09:36:58;1.30;;;1.20;;
26540;SDS011;14206;50.202;10.948;2022-10-16T09:39:29;2.28;;;1.20;;
26540;SDS011;14206;50.202;10.948;2022-10-16T09:41:56;1.35;;;1.25;;
26540;SDS011;14206;50.202;10.948;2022-10-16T09:44:24;1.85;;;1.50;;
26540;SDS011;14206;50.202;10.948;2022-10-16T09:49:58;3.00;;;1.23;;
26540;SDS011;14206;50.202;10.948;2022-10-16T09:52:32;2.03;;;1.23;;
26540;SDS011;14206;50.202;10.948;2022-10-16T09:55:00;2.60;;;1.17;;
26540;SDS011;14206;50.202;10.948;2022-10-16T09:57:28;5.10;;;2.10;;
26540;SDS011;14206;50.202;10.948;2022-10-16T09:59:58;3.38;;;1.23;;
26540;SDS011;14206;50.202;10.948;2022-10-16T10:02:29;2.70;;;1.20;;
26540;SDS011;14206;50.202;10.948;2022-10-16T10:05:06;2.53;;;1.10;;
26540;SDS011;14206;50.202;10.948;2022-10-16T10:07:53;3.22;;;1.33;;
26540;SDS011;14206;50.202;10.948;2022-10-16T10:10:29;1.60;;;1.30;;
26540;SDS011;14206;50.202;10.948;2022-10-16T10:13:16;1.35;;;1.08;;
26540;SDS011;14206;50.202;10.948;2022-10-16T10:15:48;3.53;;;1.40;;
26540;SDS011;14206;50.202;10.948;2022-10-16T10:18:20;2.03;;;1.40;;
26540;SDS011;14206;50.202;10.948;2022-10-16T10:21:00;3.80;;;1.58;;
26540;SDS011;14206;50.202;10.948;2022-10-16T10:23:28;1.70;;;1.30;;
26540;SDS011;14206;50.202;10.948;2022-10-16T10:28:44;2.33;;;1.63;;
26540;SDS011;14206;50.202;10.948;2022-10-16T10:43:24;1.45;;;1.08;;
26540;SDS011;14206;50.202;10.948;2022-10-16T10:46:02;2.25;;;1.00;;
26540;SDS011;14206;50.202;10.948;2022-10-16T10:56:40;1.75;;;1.33;;
26540;SDS011;14206;50.202;10.948;2022-10-16T11:01:54;1.50;;;1.40;;
26540;SDS011;14206;50.202;10.948;2022-10-16T11:04:33;2.60;;;1.50;;
26540;SDS011;14206;50.202;10.948;2022-10-16T11:07:02;1.70;;;1.40;;
26540;SDS011;14206;50.202;10.948;2022-10-16T11:09:39;3.25;;;1.50;;
26540;SDS011;14206;50.202;10.948;2022-10-16T11:12:20;1.77;;;1.40;;
26540;SDS011;14206;50.202;10.948;2022-10-16T11:15:16;5.25;;;1.52;;
26540;SDS011;14206;50.202;10.948;2022-10-16T11:23:50;2.80;;;1.17;;
26540;SDS011;14206;50.202;10.948;2022-10-16T11:26:09;1.42;;;1.30;;
26540;SDS011;14206;50.202;10.948;2022-10-16T11:28:44;1.33;;;1.23;;
26540;SDS011;14206;50.202;10.948;2022-10-16T11:31:19;2.83;;;1.30;;
26540;SDS011;14206;50.202;10.948;2022-10-16T11:33:57;1.52;;;1.20;;
26540;SDS011;14206;50.202;10.948;2022-10-16T11:36:47;1.15;;;0.90;;
26540;SDS011;14206;50.202;10.948;2022-10-16T11:39:31;1.10;;;0.80;;
26540;SDS011;14206;50.202;10.948;2022-10-16T11:42:11;1.30;;;0.80;;
26540;SDS011;14206;50.202;10.948;2022-10-16T11:48:18;1.73;;;1.50;;
26540;SDS011;14206;50.202;10.948;2022-10-16T11:51:02;1.58;;;1.30;;
26540;SDS011;14206;50.202;10.948;2022-10-16T11:56:16;1.70;;;1.50;;
26540;SDS011;14206;50.202;10.948;2022-10-16T12:04:03;1.70;;;1.60;;
26540;SDS011;14206;50.202;10.948;2022-10-16T12:09:34;2.58;;;2.15;;
26540;SDS011;14206;50.202;10.948;2022-10-16T12:12:04;3.13;;;1.92;;
26540;SDS011;14206;50.202;10.948;2022-10-16T12:14:59;2.60;;;1.92;;
26540;SDS011;14206;50.202;10.948;2022-10-16T12:17:47;4.18;;;2.22;;
26540;SDS011;14206;50.202;10.948;2022-10-16T12:22:51;1.50;;;1.35;;
26540;SDS011;14206;50.202;10.948;2022-10-16T12:25:27;2.08;;;1.55;;
26540;SDS011;14206;50.202;10.948;2022-10-16T12:30:32;2.65;;;1.40;;
26540;SDS011;14206;50.202;10.948;2022-10-16T12:33:02;1.80;;;1.27;;
26540;SDS011;14206;50.202;10.948;2022-10-16T12:35:45;1.98;;;1.38;;
26540;SDS011;14206;50.202;10.948;2022-10-16T12:38:25;1.88;;;1.30;;
26540;SDS011;14206;50.202;10.948;2022-10-16T12:48:41;1.35;;;1.25;;
26540;SDS011;14206;50.202;10.948;2022-10-16T12:53:58;1.30;;;1.20;;
26540;SDS011;14206;50.202;10.948;2022-10-16T12:56:27;1.25;;;1.05;;
26540;SDS011;14206;50.202;10.948;2022-10-16T12:59:24;1.67;;;1.00;;
26540;SDS011;14206;50.202;10.948;2022-10-16T13:10:37;1.30;;;1.20;;
26540;SDS011;14206;50.202;10.948;2022-10-16T13:13:18;2.90;;;1.00;;
26540;SDS011;14206;50.202;10.948;2022-10-16T13:22:03;1.05;;;0.95;;
26540;SDS011;14206;50.202;10.948;2022-10-16T13:30:16;0.70;;;0.70;;
26540;SDS011;14206;50.202;10.948;2022-10-16T13:33:01;1.35;;;0.90;;
26540;SDS011;14206;50.202;10.948;2022-10-16T13:35:47;0.83;;;0.83;;
26540;SDS011;14206;50.202;10.948;2022-10-16T13:38:18;1.02;;;0.80;;
26540;SDS011;14206;50.202;10.948;2022-10-16T13:40:53;1.45;;;1.10;;
26540;SDS011;14206;50.202;10.948;2022-10-16T13:46:18;0.93;;;0.90;;
26540;SDS011;14206;50.202;10.948;2022-10-16T13:48:59;0.80;;;0.80;;
26540;SDS011;14206;50.202;10.948;2022-10-16T13:51:28;1.20;;;0.90;;
26540;SDS011;14206;50.202;10.948;2022-10-16T13:53:56;1.50;;;1.08;;
26540;SDS011;14206;50.202;10.948;2022-10-16T13:56:27;2.00;;;1.20;;
26540;SDS011;14206;50.202;10.948;2022-10-16T14:01:33;1.15;;;1.00;;
26540;SDS011;14206;50.202;10.948;2022-10-16T14:04:10;1.10;;;1.00;;
26540;SDS011;14206;50.202;10.948;2022-10-16T14:06:40;1.58;;;1.00;;
26540;SDS011;14206;50.202;10.948;2022-10-16T14:09:14;1.63;;;1.00;;
26540;SDS011;14206;50.202;10.948;2022-10-16T14:12:00;1.35;;;1.25;;
26540;SDS011;14206;50.202;10.948;2022-10-16T14:14:34;1.55;;;0.95;;
26540;SDS011;14206;50.202;10.948;2022-10-16T14:17:19;1.25;;;1.15;;
26540;SDS011;14206;50.202;10.948;2022-10-16T14:19:53;3.30;;;1.10;;
26540;SDS011;14206;50.202;10.948;2022-10-16T14:22:29;1.00;;;0.95;;
26540;SDS011;14206;50.202;10.948;2022-10-16T14:25:00;1.20;;;1.10;;
26540;SDS011;14206;50.202;10.948;2022-10-16T14:27:33;0.95;;;0.90;;
26540;SDS011;14206;50.202;10.948;2022-10-16T14:33:02;1.77;;;1.30;;
26540;SDS011;14206;50.202;10.948;2022-10-16T14:35:43;1.30;;;1.10;;
26540;SDS011;14206;50.202;10.948;2022-10-16T14:38:20;2.38;;;1.20;;
26540;SDS011;14206;50.202;10.948;2022-10-16T14:40:47;1.27;;;1.17;;
26540;SDS011;14206;50.202;10.948;2022-10-16T14:43:22;1.20;;;1.10;;
26540;SDS011;14206;50.202;10.948;2022-10-16T14:46:05;1.10;;;0.80;;
26540;SDS011;14206;50.202;10.948;2022-10-16T14:51:14;1.17;;;0.90;;
26540;SDS011;14206;50.202;10.948;2022-10-16T14:53:42;2.17;;;1.00;;
26540;SDS011;14206;50.202;10.948;2022-10-16T14:56:19;1.25;;;1.15;;
26540;SDS011;14206;50.202;10.948;2022-10-16T14:58:53;1.02;;;0.85;;
26540;SDS011;14206;50.202;10.948;2022-10-16T15:01:22;1.10;;;0.80;;
26540;SDS011;14206;50.202;10.948;2022-10-16T15:03:49;0.82;;;0.60;;
26540;SDS011;14206;50.202;10.948;2022-10-16T15:06:18;0.65;;;0.65;;
26540;SDS011;14206;50.202;10.948;2022-10-16T15:08:45;0.82;;;0.60;;
26540;SDS011;14206;50.202;10.948;2022-10-16T15:11:12;0.70;;;0.70;;
26540;SDS011;14206;50.202;10.948;2022-10-16T15:13:42;0.70;;;0.70;;
26540;SDS011;14206;50.202;10.948;2022-10-16T15:16:12;0.60;;;0.60;;
26540;SDS011;14206;50.202;10.948;2022-10-16T15:18:41;0.90;;;0.60;;
26540;SDS011;14206;50.202;10.948;2022-10-16T15:21:12;0.50;;;0.50;;
26540;SDS011;14206;50.202;10.948;2022-10-16T15:23:52;0.60;;;0.60;;
26540;SDS011;14206;50.202;10.948;2022-10-16T15:26:19;0.50;;;0.50;;
26540;SDS011;14206;50.202;10.948;2022-10-16T15:28:46;0.50;;;0.50;;
26540;SDS011;14206;50.202;10.948;2022-10-16T15:31:13;0.60;;;0.60;;
26540;SDS011;14206;50.202;10.948;2022-10-16T15:33:39;0.77;;;0.70;;
26540;SDS011;14206;50.202;10.948;2022-10-16T15:36:07;0.70;;;0.70;;
26540;SDS011;14206;50.202;10.948;2022-10-16T15:38:34;0.50;;;0.50;;
26540;SDS011;14206;50.202;10.948;2022-10-16T15:41:01;0.50;;;0.50;;
26540;SDS011;14206;50.202;10.948;2022-10-16T15:43:28;0.70;;;0.70;;
26540;SDS011;14206;50.202;10.948;2022-10-16T15:45:59;0.70;;;0.70;;
26540;SDS011;14206;50.202;10.948;2022-10-16T15:48:32;0.73;;;0.73;;
26540;SDS011;14206;50.202;10.948;2022-10-16T15:50:59;0.80;;;0.60;;
26540;SDS011;14206;50.202;10.948;2022-10-16T15:53:28;0.85;;;0.60;;
26540;SDS011;14206;50.202;10.948;2022-10-16T15:55:55;0.73;;;0.50;;
26540;SDS011;14206;50.202;10.948;2022-10-16T15:58:22;0.60;;;0.60;;
26540;SDS011;14206;50.202;10.948;2022-10-16T16:00:54;0.60;;;0.60;;
26540;SDS011;14206;50.202;10.948;2022-10-16T16:03:22;0.88;;;0.60;;
26540;SDS011;14206;50.202;10.948;2022-10-16T16:05:49;0.70;;;0.70;;
26540;SDS011;14206;50.202;10.948;2022-10-16T16:08:16;2.63;;;0.80;;
26540;SDS011;14206;50.202;10.948;2022-10-16T16:10:43;0.98;;;0.98;;
26540;SDS011;14206;50.202;10.948;2022-10-16T16:13:13;1.23;;;1.13;;
26540;SDS011;14206;50.202;10.948;2022-10-16T16:15:40;1.35;;;1.25;;
26540;SDS011;14206;50.202;10.948;2022-10-16T16:18:07;1.33;;;1.23;;
26540;SDS011;14206;50.202;10.948;2022-10-16T16:20:36;1.15;;;1.02;;
26540;SDS011;14206;50.202;10.948;2022-10-16T16:23:02;1.20;;;1.10;;
26540;SDS011;14206;50.202;10.948;2022-10-16T16:25:29;1.15;;;1.05;;
26540;SDS011;14206;50.202;10.948;2022-10-16T16:27:57;1.45;;;1.25;;
26540;SDS011;14206;50.202;10.948;2022-10-16T16:30:24;0.90;;;0.90;;
26540;SDS011;14206;50.202;10.948;2022-10-16T16:32:54;1.42;;;1.17;;
26540;SDS011;14206;50.202;10.948;2022-10-16T16:35:20;1.10;;;1.00;;
26540;SDS011;14206;50.202;10.948;2022-10-16T16:37:47;1.08;;;0.98;;
26540;SDS011;14206;50.202;10.948;2022-10-16T16:40:14;0.90;;;0.90;;
26540;SDS011;14206;50.202;10.948;2022-10-16T16:42:41;2.40;;;1.00;;
26540;SDS011;14206;50.202;10.948;2022-10-16T16:45:08;1.00;;;1.00;;
26540;SDS011;14206;50.202;10.948;2022-10-16T16:47:35;1.23;;;0.80;;
26540;SDS011;14206;50.202;10.948;2022-10-16T16:50:02;1.10;;;1.00;;
26540;SDS011;14206;50.202;10.948;2022-10-16T16:52:37;1.10;;;1.00;;
26540;SDS011;14206;50.202;10.948;2022-10-16T16:55:04;0.77;;;0.77;;
26540;SDS011;14206;50.202;10.948;2022-10-16T16:57:31;1.17;;;1.08;;
26540;SDS011;14206;50.202;10.948;2022-10-16T16:59:58;0.90;;;0.90;;
26540;SDS011;14206;50.202;10.948;2022-10-16T17:02:25;1.00;;;0.90;;
26540;SDS011;14206;50.202;10.948;2022-10-16T17:04:52;1.38;;;1.17;;
26540;SDS011;14206;50.202;10.948;2022-10-16T17:07:31;1.02;;;0.93;;
26540;SDS011;14206;50.202;10.948;2022-10-16T17:10:01;1.10;;;1.00;;